createdAt,value
2023-04-18T00:02:17.324Z,9.00
2023-04-18T00:04:47.939Z,9.00
2023-04-18T00:07:19.495Z,8.80
2023-04-18T00:09:49.708Z,9.90
2023-04-18T00:12:20.657Z,8.40
2023-04-18T00:14:52.112Z,9.40
2023-04-18T00:17:22.759Z,9.10
2023-04-18T00:19:54.231Z,9.30
2023-04-18T00:22:24.505Z,8.80
2023-04-18T00:24:55.136Z,8.70
2023-04-18T00:27:25.772Z,9.40
2023-04-18T00:29:56.061Z,9.20
2023-04-18T00:32:26.302Z,8.10
2023-04-18T00:34:56.653Z,8.90
2023-04-18T00:37:27.220Z,8.40
2023-04-18T00:39:57.956Z,9.70
2023-04-18T00:42:29.157Z,10.00
2023-04-18T00:44:59.804Z,10.10
2023-04-18T00:47:30.536Z,10.00
2023-04-18T00:50:01.215Z,8.70
2023-04-18T00:52:33.633Z,11.30
2023-04-18T00:55:05.075Z,10.40
2023-04-18T00:57:35.872Z,10.40
2023-04-18T01:00:09.828Z,11.40
2023-04-18T01:02:41.144Z,10.60
2023-04-18T01:05:12.395Z,11.80
2023-04-18T01:07:42.756Z,11.60
2023-04-18T01:10:13.486Z,11.80
2023-04-18T01:12:44.304Z,10.90
2023-04-18T01:15:15.762Z,11.00
2023-04-18T01:17:48.691Z,11.00
2023-04-18T01:20:23.420Z,10.90
2023-04-18T01:22:54.547Z,11.00
2023-04-18T01:25:25.307Z,13.20
2023-04-18T01:27:55.763Z,11.40
2023-04-18T01:30:26.051Z,11.50
2023-04-18T01:32:56.306Z,12.60
2023-04-18T01:35:29.580Z,13.30
2023-04-18T01:38:00.144Z,14.00
2023-04-18T01:40:31.396Z,14.70
2023-04-18T01:43:01.649Z,14.40
2023-04-18T01:45:32.279Z,14.30
2023-04-18T01:48:02.657Z,15.40
2023-04-18T01:50:33.289Z,14.30
2023-04-18T01:53:03.446Z,12.90
2023-04-18T01:55:33.932Z,14.00
2023-04-18T01:58:04.176Z,13.70
2023-04-18T02:00:34.583Z,14.10
2023-04-18T02:03:05.368Z,13.10
2023-04-18T02:05:37.753Z,15.00
2023-04-18T02:08:08.183Z,15.10
2023-04-18T02:10:39.570Z,14.80
2023-04-18T02:13:10.102Z,14.80
2023-04-18T02:15:40.602Z,14.40
2023-04-18T02:18:11.927Z,13.80
2023-04-18T02:20:42.649Z,14.50
2023-04-18T02:23:13.131Z,15.80
2023-04-18T02:25:43.929Z,14.10
2023-04-18T02:28:14.705Z,14.80
2023-04-18T02:30:45.240Z,13.90
2023-04-18T02:33:15.666Z,14.90
2023-04-18T02:35:45.932Z,15.30
2023-04-18T02:38:16.959Z,15.10
2023-04-18T02:40:47.287Z,15.20
2023-04-18T02:43:17.483Z,15.20
2023-04-18T02:45:48.314Z,13.90
2023-04-18T02:48:18.726Z,12.80
2023-04-18T02:50:49.131Z,13.00
2023-04-18T02:53:19.675Z,14.70
2023-04-18T02:55:50.122Z,12.50
2023-04-18T02:58:25.170Z,12.50
2023-04-18T03:00:56.361Z,13.30
2023-04-18T03:03:26.770Z,14.80
2023-04-18T03:05:57.584Z,15.10
2023-04-18T03:08:28.356Z,14.40
2023-04-18T03:10:59.307Z,11.90
2023-04-18T03:13:29.563Z,13.90
2023-04-18T03:16:00.764Z,14.00
2023-04-18T03:18:31.214Z,13.40
2023-04-18T03:21:01.979Z,14.40
2023-04-18T03:23:32.280Z,14.10
2023-04-18T03:26:02.873Z,13.90
2023-04-18T03:28:33.580Z,11.80
2023-04-18T03:31:04.100Z,12.70
2023-04-18T03:33:35.089Z,11.80
2023-04-18T03:36:06.457Z,13.70
2023-04-18T03:38:40.496Z,14.20
2023-04-18T03:41:10.839Z,13.70
2023-04-18T03:43:41.536Z,12.00
2023-04-18T03:46:13.732Z,10.80
2023-04-18T03:48:44.332Z,12.80
2023-04-18T03:51:15.088Z,12.20
2023-04-18T03:53:45.839Z,11.50
2023-04-18T03:56:16.568Z,11.50
2023-04-18T03:58:46.814Z,12.60
2023-04-18T04:01:17.509Z,12.40
2023-04-18T04:03:48.313Z,11.50
2023-04-18T04:06:21.474Z,10.30
2023-04-18T04:08:51.801Z,9.20
2023-04-18T04:11:22.146Z,9.10
2023-04-18T04:13:52.863Z,10.60
2023-04-18T04:16:23.552Z,9.80
2023-04-18T04:18:54.088Z,10.70
2023-04-18T04:21:24.348Z,8.50
2023-04-18T04:23:55.508Z,9.40
2023-04-18T04:26:27.298Z,10.10
2023-04-18T04:28:58.906Z,10.90
2023-04-18T04:31:29.732Z,8.00
2023-04-18T04:34:00.279Z,6.50
2023-04-18T04:36:30.806Z,8.10
2023-04-18T04:39:03.892Z,7.10
2023-04-18T04:41:37.298Z,5.70
2023-04-18T04:44:07.856Z,7.70
2023-04-18T04:46:40.077Z,7.20
2023-04-18T04:49:10.271Z,6.80
2023-04-18T04:51:40.727Z,6.80
2023-04-18T04:54:11.431Z,7.00
2023-04-18T04:56:41.908Z,7.10
2023-04-18T04:59:20.098Z,6.90
2023-04-18T05:01:51.539Z,7.20
2023-04-18T05:04:22.800Z,7.30
2023-04-18T05:06:53.287Z,7.20
2023-04-18T05:09:23.446Z,7.40
2023-04-18T05:11:55.756Z,7.60
2023-04-18T05:14:29.825Z,8.00
2023-04-18T05:17:01.679Z,9.10
2023-04-18T05:19:34.088Z,7.90
2023-04-18T05:22:05.448Z,7.10
2023-04-18T05:24:36.432Z,6.40
2023-04-18T05:27:07.962Z,7.40
2023-04-18T05:29:40.014Z,7.80
2023-04-18T05:32:12.113Z,8.40
2023-04-18T05:34:46.849Z,7.80
2023-04-18T05:37:18.063Z,7.60
2023-04-18T05:39:51.146Z,7.10
2023-04-18T05:42:22.670Z,6.20
2023-04-18T05:44:59.298Z,8.00
2023-04-18T05:47:30.718Z,7.40
2023-04-18T05:50:03.316Z,6.40
2023-04-18T05:52:34.649Z,8.10
2023-04-18T05:55:08.081Z,7.80
2023-04-18T05:57:42.563Z,6.20
2023-04-18T06:00:17.045Z,7.00
2023-04-18T06:02:51.620Z,8.30
2023-04-18T06:05:22.902Z,8.00
2023-04-18T06:07:54.610Z,7.20
2023-04-18T06:10:26.634Z,7.00
2023-04-18T06:13:00.753Z,6.20
2023-04-18T06:15:32.028Z,6.50
2023-04-18T06:18:07.857Z,7.10
2023-04-18T06:20:40.062Z,6.10
2023-04-18T06:23:23.631Z,7.60
2023-04-18T06:25:55.962Z,6.70
2023-04-18T06:28:34.507Z,7.00
2023-04-18T06:31:08.692Z,6.10
2023-04-18T06:33:40.856Z,6.60
2023-04-18T06:36:12.406Z,6.90
2023-04-18T06:38:44.295Z,7.00
2023-04-18T06:41:17.081Z,7.20
2023-04-18T06:44:02.235Z,5.80
2023-04-18T06:46:36.176Z,7.10
2023-04-18T06:49:08.607Z,5.30
2023-04-18T06:51:40.152Z,6.00
2023-04-18T06:54:12.909Z,6.00
2023-04-18T06:56:45.517Z,4.80
2023-04-18T06:59:22.116Z,6.10
2023-04-18T07:01:56.981Z,6.00
2023-04-18T07:04:29.714Z,5.60
2023-04-18T07:07:01.951Z,6.00
2023-04-18T07:09:35.062Z,6.20
2023-04-18T07:12:14.682Z,6.70
2023-04-18T07:14:46.857Z,5.00
2023-04-18T07:17:17.888Z,5.90
2023-04-18T07:19:48.528Z,5.80
2023-04-18T07:22:18.993Z,5.90
2023-04-18T07:24:49.402Z,5.90
2023-04-18T07:27:20.925Z,6.30
2023-04-18T07:29:52.346Z,6.30
2023-04-18T07:32:23.004Z,6.40
2023-04-18T07:34:55.182Z,5.10
2023-04-18T07:37:25.949Z,5.90
2023-04-18T07:39:56.296Z,6.00
2023-04-18T07:42:27.387Z,5.20
2023-04-18T07:44:59.624Z,5.40
2023-04-18T07:47:31.566Z,5.10
2023-04-18T07:50:03.445Z,6.10
2023-04-18T07:52:33.820Z,6.10
2023-04-18T07:55:09.080Z,5.30
2023-04-18T07:57:39.581Z,4.70
2023-04-18T08:00:12.937Z,5.70
2023-04-18T08:02:46.372Z,5.50
2023-04-18T08:05:17.147Z,5.60
2023-04-18T08:07:52.458Z,5.60
2023-04-18T08:10:25.415Z,5.30
2023-04-18T08:12:58.426Z,5.20
2023-04-18T08:15:33.211Z,6.30
2023-04-18T08:18:03.602Z,6.90
2023-04-18T08:20:35.636Z,5.70
2023-04-18T08:23:10.233Z,6.70
2023-04-18T08:25:47.786Z,5.90
2023-04-18T08:28:19.143Z,6.20
2023-04-18T08:30:50.166Z,7.10
2023-04-18T08:33:23.473Z,8.20
2023-04-18T08:35:53.922Z,6.70
2023-04-18T08:38:42.245Z,6.80
2023-04-18T08:41:12.990Z,7.10
2023-04-18T08:43:44.176Z,6.90
2023-04-18T08:46:14.786Z,6.70
2023-04-18T08:48:47.606Z,7.10
2023-04-18T08:51:18.536Z,6.30
2023-04-18T08:53:52.047Z,6.60
2023-04-18T08:56:25.679Z,7.70
2023-04-18T08:59:02.331Z,5.30
2023-04-18T09:04:36.182Z,6.40
2023-04-18T09:07:08.297Z,6.10
2023-04-18T09:09:49.799Z,6.00
2023-04-18T09:12:24.752Z,7.50
2023-04-18T09:14:59.412Z,7.10
2023-04-18T09:17:37.441Z,7.20
2023-04-18T09:20:10.642Z,6.60
2023-04-18T09:22:51.204Z,6.10
2023-04-18T09:25:35.516Z,5.50
2023-04-18T09:28:24.393Z,7.60
2023-04-18T09:30:55.919Z,7.50
2023-04-18T09:33:34.086Z,7.10
2023-04-18T09:36:20.480Z,6.80
2023-04-18T09:38:56.295Z,5.10
2023-04-18T09:41:27.763Z,5.50
2023-04-18T09:44:15.057Z,5.70
2023-04-18T09:46:47.400Z,5.20
2023-04-18T09:49:20.531Z,6.50
2023-04-18T09:51:52.550Z,9.10
2023-04-18T09:54:28.258Z,5.00
2023-04-18T09:57:03.010Z,5.00
2023-04-18T09:59:42.020Z,5.30
2023-04-18T10:02:18.896Z,4.50
2023-04-18T10:04:49.506Z,4.50
2023-04-18T10:07:20.732Z,6.40
2023-04-18T10:09:51.259Z,5.80
2023-04-18T10:12:25.257Z,6.00
2023-04-18T10:15:00.800Z,5.00
2023-04-18T10:17:56.016Z,4.90
2023-04-18T10:20:31.785Z,4.90
2023-04-18T10:23:23.180Z,4.80
2023-04-18T10:25:54.016Z,4.30
2023-04-18T10:28:26.228Z,4.10
2023-04-18T10:31:03.049Z,5.10
2023-04-18T10:33:35.156Z,5.60
2023-04-18T10:36:19.729Z,6.70
2023-04-18T10:38:51.608Z,5.10
2023-04-18T10:41:27.153Z,5.80
2023-04-18T10:44:22.277Z,4.40
2023-04-18T10:47:21.374Z,4.60
2023-04-18T10:52:29.659Z,6.60
2023-04-18T10:55:13.958Z,5.60
2023-04-18T10:57:45.421Z,6.00
2023-04-18T11:00:18.252Z,6.40
2023-04-18T11:02:55.607Z,5.10
2023-04-18T11:05:28.035Z,5.40
2023-04-18T11:07:58.525Z,4.90
2023-04-18T11:10:29.682Z,5.80
2023-04-18T11:13:04.258Z,5.30
2023-04-18T11:15:39.769Z,4.60
2023-04-18T11:18:11.953Z,5.80
2023-04-18T11:20:49.978Z,4.80
2023-04-18T11:23:24.943Z,5.70
2023-04-18T11:26:03.419Z,4.70
2023-04-18T11:28:34.516Z,5.50
2023-04-18T11:31:09.205Z,6.20
2023-04-18T11:33:41.014Z,6.80
2023-04-18T11:36:12.073Z,6.80
2023-04-18T11:38:43.045Z,7.20
2023-04-18T11:41:17.087Z,6.00
2023-04-18T11:43:48.787Z,7.30
2023-04-18T11:46:19.401Z,6.90
2023-04-18T11:48:50.729Z,7.10
2023-04-18T11:51:36.744Z,6.60
2023-04-18T11:54:13.253Z,7.60
2023-04-18T11:56:50.402Z,6.60
2023-04-18T11:59:24.081Z,6.70
2023-04-18T12:02:16.221Z,6.90
2023-04-18T12:04:59.354Z,6.40
2023-04-18T12:07:36.938Z,6.80
2023-04-18T12:10:10.784Z,7.30
2023-04-18T12:12:49.743Z,6.90
2023-04-18T12:15:21.517Z,6.20
2023-04-18T12:17:52.477Z,6.90
2023-04-18T12:20:27.184Z,8.70
2023-04-18T12:22:57.736Z,7.30
2023-04-18T12:25:28.827Z,7.50
2023-04-18T12:28:01.348Z,6.30
2023-04-18T12:30:34.158Z,6.50
2023-04-18T12:33:08.911Z,6.70
2023-04-18T12:35:39.930Z,6.40
2023-04-18T12:38:10.811Z,5.80
2023-04-18T12:40:41.649Z,8.30
2023-04-18T12:43:12.272Z,6.40
2023-04-18T12:45:43.183Z,6.30
2023-04-18T12:48:15.212Z,6.80
2023-04-18T12:50:45.456Z,8.20
2023-04-18T12:53:24.697Z,6.20
2023-04-18T12:56:03.222Z,5.50
2023-04-18T12:58:34.973Z,6.10
2023-04-18T13:01:09.130Z,5.90
2023-04-18T13:03:40.381Z,6.60
2023-04-18T13:06:11.285Z,5.20
2023-04-18T13:08:49.789Z,4.80
2023-04-18T13:11:22.485Z,5.30
2023-04-18T13:13:53.094Z,5.00
2023-04-18T13:16:24.872Z,6.00
2023-04-18T13:18:55.024Z,5.10
2023-04-18T13:21:53.431Z,5.20
2023-04-18T13:24:24.342Z,5.40
2023-04-18T13:26:55.357Z,6.40
2023-04-18T13:29:28.112Z,5.60
2023-04-18T13:32:08.391Z,5.80
2023-04-18T13:34:49.338Z,6.10
2023-04-18T13:37:19.650Z,6.00
2023-04-18T13:39:50.127Z,5.70
2023-04-18T13:42:20.925Z,5.90
2023-04-18T13:44:51.720Z,6.60
2023-04-18T13:47:23.272Z,5.80
2023-04-18T13:49:54.665Z,6.40
2023-04-18T13:52:26.106Z,5.60
2023-04-18T13:54:56.646Z,6.10
2023-04-18T13:57:33.293Z,6.80
2023-04-18T14:00:08.840Z,6.20
2023-04-18T14:02:41.875Z,5.40
2023-04-18T14:05:15.728Z,5.90
2023-04-18T14:07:47.265Z,6.30
2023-04-18T14:10:21.615Z,6.80
2023-04-18T14:12:58.522Z,5.60
2023-04-18T14:15:31.767Z,5.10
2023-04-18T14:18:22.151Z,6.10
2023-04-18T14:21:02.999Z,5.10
2023-04-18T14:23:49.975Z,6.20
2023-04-18T14:26:23.576Z,5.60
2023-04-18T14:28:54.178Z,6.20
2023-04-18T14:31:26.667Z,4.20
2023-04-18T14:34:00.589Z,6.10
2023-04-18T14:36:33.301Z,5.70
2023-04-18T14:39:04.890Z,5.80
2023-04-18T14:41:35.285Z,5.40
2023-04-18T14:46:54.651Z,5.60
2023-04-18T14:49:30.148Z,6.10
2023-04-18T14:52:00.856Z,5.50
2023-04-18T14:54:34.654Z,6.60
2023-04-18T14:57:07.934Z,6.00
2023-04-18T14:59:40.823Z,5.90
2023-04-18T15:02:11.882Z,6.20
2023-04-18T15:04:42.393Z,5.70
2023-04-18T15:07:15.232Z,6.00
2023-04-18T15:09:48.515Z,5.50
2023-04-18T15:12:21.324Z,7.00
2023-04-18T15:14:56.385Z,6.40
2023-04-18T15:17:30.847Z,5.50
2023-04-18T15:20:05.433Z,6.10
2023-04-18T15:22:48.016Z,6.60
2023-04-18T15:25:22.986Z,6.90
2023-04-18T15:27:54.188Z,6.30
2023-04-18T15:30:27.808Z,5.50
2023-04-18T15:32:58.397Z,5.60
2023-04-18T15:35:32.352Z,5.20
2023-04-18T15:38:14.415Z,6.10
2023-04-18T15:41:02.773Z,7.10
2023-04-18T15:43:42.268Z,6.80
2023-04-18T15:46:12.697Z,6.10
2023-04-18T15:48:43.209Z,6.50
2023-04-18T15:51:16.649Z,7.80
2023-04-18T15:53:48.463Z,8.90
2023-04-18T15:56:19.311Z,8.20
2023-04-18T15:58:53.992Z,12.00
2023-04-18T16:01:30.563Z,13.70
2023-04-18T16:04:01.676Z,12.80
2023-04-18T16:06:35.034Z,12.20
2023-04-18T16:09:07.614Z,13.50
2023-04-18T16:11:40.176Z,13.20
2023-04-18T16:14:11.829Z,11.60
2023-04-18T16:16:42.403Z,13.00
2023-04-18T16:19:14.507Z,9.80
2023-04-18T16:21:46.793Z,11.10
2023-04-18T16:24:17.711Z,10.60
2023-04-18T16:26:51.803Z,13.00
2023-04-18T16:29:22.143Z,10.60
2023-04-18T16:31:53.704Z,11.40
2023-04-18T16:34:24.285Z,11.20
2023-04-18T16:36:57.722Z,10.40
2023-04-18T16:39:31.991Z,10.50
2023-04-18T16:42:05.858Z,9.30
2023-04-18T16:44:43.094Z,9.00
2023-04-18T16:47:14.827Z,9.00
2023-04-18T16:49:51.535Z,10.90
2023-04-18T16:52:23.818Z,10.00
2023-04-18T16:54:59.519Z,9.50
2023-04-18T16:57:31.578Z,10.40
2023-04-18T17:00:06.490Z,10.90
2023-04-18T17:02:46.939Z,10.50
2023-04-18T17:05:19.453Z,11.70
2023-04-18T17:07:51.300Z,13.40
2023-04-18T17:10:23.522Z,12.70
2023-04-18T17:12:54.563Z,11.10
2023-04-18T17:15:34.583Z,11.70
2023-04-18T17:18:05.118Z,9.40
2023-04-18T17:20:39.060Z,10.60
2023-04-18T17:23:09.469Z,27.50
2023-04-18T17:25:41.305Z,10.70
2023-04-18T17:28:20.890Z,12.10
2023-04-18T17:30:57.605Z,10.30
2023-04-18T17:33:55.957Z,10.60
2023-04-18T17:36:32.179Z,11.90
2023-04-18T17:39:06.166Z,11.20
2023-04-18T17:41:38.821Z,12.10
2023-04-18T17:44:11.099Z,10.20
2023-04-18T17:46:52.172Z,12.00
2023-04-18T17:49:24.391Z,11.20
2023-04-18T17:51:55.148Z,12.20
2023-04-18T17:54:27.052Z,12.60
2023-04-18T17:56:58.090Z,11.90
2023-04-18T17:59:29.637Z,11.00
2023-04-18T18:01:59.988Z,11.40
2023-04-18T18:04:30.656Z,9.40
2023-04-18T18:07:07.533Z,9.30
2023-04-18T18:09:42.857Z,8.80
2023-04-18T18:12:15.406Z,9.80
2023-04-18T18:14:47.404Z,9.50
2023-04-18T18:17:24.620Z,9.40
2023-04-18T18:20:01.332Z,10.10
2023-04-18T18:22:35.862Z,9.30
2023-04-18T18:25:09.180Z,9.00
2023-04-18T18:27:41.082Z,9.90
2023-04-18T18:30:26.324Z,6.90
2023-04-18T18:32:57.805Z,7.00
2023-04-18T18:35:32.120Z,7.50
2023-04-18T18:38:03.673Z,8.00
2023-04-18T18:40:42.688Z,8.40
2023-04-18T18:43:16.879Z,7.00
2023-04-18T18:45:47.587Z,8.00
2023-04-18T18:48:18.173Z,8.00
2023-04-18T18:50:53.966Z,7.60
2023-04-18T18:53:25.498Z,9.00
2023-04-18T18:55:57.774Z,8.10
2023-04-18T19:01:30.872Z,8.50
2023-04-18T19:04:03.750Z,8.80
2023-04-18T19:06:35.712Z,9.70
2023-04-18T19:09:19.877Z,8.40
2023-04-18T19:11:51.547Z,8.70
2023-04-18T19:14:21.666Z,9.70
2023-04-18T19:16:56.808Z,9.30
2023-04-18T19:19:32.484Z,9.00
2023-04-18T19:22:05.787Z,9.80
2023-04-18T19:24:41.022Z,9.80
2023-04-18T19:27:11.438Z,9.30
2023-04-18T19:29:48.250Z,9.80
2023-04-18T19:32:20.976Z,11.60
2023-04-18T19:34:52.296Z,9.20
2023-04-18T19:37:30.556Z,8.80
2023-04-18T19:40:02.753Z,9.10
2023-04-18T19:42:44.944Z,8.60
2023-04-18T19:45:20.532Z,9.80
2023-04-18T19:47:55.298Z,9.90
2023-04-18T19:50:28.064Z,10.30
2023-04-18T19:53:01.312Z,10.10
2023-04-18T19:55:38.415Z,10.10
2023-04-18T19:58:10.921Z,9.70
2023-04-18T20:00:42.946Z,10.10
2023-04-18T20:03:25.945Z,11.80
2023-04-18T20:05:59.745Z,11.60
2023-04-18T20:08:31.931Z,10.80
2023-04-18T20:11:03.440Z,10.90
2023-04-18T20:13:38.259Z,12.70
2023-04-18T20:16:15.366Z,13.70
2023-04-18T20:18:49.869Z,14.50
2023-04-18T20:21:21.645Z,14.60
2023-04-18T20:23:56.379Z,15.00
2023-04-18T20:26:31.363Z,15.40
2023-04-18T20:31:35.079Z,14.00
2023-04-18T20:34:06.350Z,13.00
2023-04-18T20:36:41.140Z,14.20
2023-04-18T20:39:12.835Z,14.60
2023-04-18T20:41:46.177Z,12.10
2023-04-18T20:44:20.988Z,13.40
2023-04-18T20:46:59.541Z,12.70
2023-04-18T20:49:33.473Z,13.20
2023-04-18T20:52:08.083Z,13.20
2023-04-18T20:54:38.841Z,11.50
2023-04-18T20:57:10.157Z,12.30
2023-04-18T20:59:40.896Z,11.30
2023-04-18T21:02:11.824Z,11.20
2023-04-18T21:04:46.515Z,9.60
2023-04-18T21:07:21.509Z,10.10
2023-04-18T21:09:52.104Z,11.30
2023-04-18T21:12:22.479Z,11.10
2023-04-18T21:14:53.062Z,11.20
2023-04-18T21:17:25.393Z,11.10
2023-04-18T21:19:56.823Z,10.70
2023-04-18T21:22:27.214Z,11.60
2023-04-18T21:24:57.688Z,11.30
2023-04-18T21:27:28.148Z,12.10
2023-04-18T21:29:58.366Z,12.00
2023-04-18T21:32:28.921Z,12.00
2023-04-18T21:35:01.130Z,10.80
2023-04-18T21:37:31.974Z,10.00
2023-04-18T21:40:06.242Z,11.30
2023-04-18T21:42:36.771Z,11.10
2023-04-18T21:45:09.133Z,10.80
2023-04-18T21:47:40.348Z,11.20
2023-04-18T21:50:12.210Z,12.00
2023-04-18T21:52:42.383Z,12.90
2023-04-18T21:55:13.363Z,12.70
2023-04-18T21:57:43.779Z,13.00
2023-04-18T22:00:16.552Z,13.60
2023-04-18T22:02:46.864Z,11.60
2023-04-18T22:05:17.982Z,12.60
2023-04-18T22:07:57.402Z,11.90
2023-04-18T22:10:28.815Z,12.30
2023-04-18T22:12:59.888Z,10.10
2023-04-18T22:15:31.089Z,9.10
2023-04-18T22:18:01.825Z,8.90
2023-04-18T22:20:33.274Z,8.30
2023-04-18T22:23:04.197Z,8.20
2023-04-18T22:25:34.966Z,7.30
2023-04-18T22:28:05.624Z,8.70
2023-04-18T22:30:36.083Z,8.90
2023-04-18T22:33:06.409Z,8.30
2023-04-18T22:35:36.480Z,9.00
2023-04-18T22:38:06.864Z,7.50
2023-04-18T22:40:37.004Z,7.80
2023-04-18T22:43:07.592Z,7.60
2023-04-18T22:45:38.639Z,7.50
2023-04-18T22:48:11.208Z,8.10
2023-04-18T22:50:42.501Z,7.60
2023-04-18T22:53:14.054Z,9.60
2023-04-18T22:55:45.264Z,7.70
2023-04-18T22:58:15.454Z,9.30
2023-04-18T23:00:46.465Z,8.40
2023-04-18T23:03:17.375Z,8.30
2023-04-18T23:05:47.866Z,7.40
2023-04-18T23:08:20.467Z,7.70
2023-04-18T23:10:51.004Z,8.00
2023-04-18T23:13:21.235Z,8.70
2023-04-18T23:15:51.783Z,8.10
2023-04-18T23:18:22.245Z,7.70
2023-04-18T23:20:52.427Z,8.00
2023-04-18T23:23:22.562Z,8.70
2023-04-18T23:25:52.753Z,7.60
2023-04-18T23:28:23.312Z,6.60
2023-04-18T23:30:53.782Z,6.90
2023-04-18T23:33:24.008Z,7.20
2023-04-18T23:35:54.687Z,7.50
2023-04-18T23:38:24.721Z,8.80
2023-04-18T23:40:55.168Z,6.00
2023-04-18T23:43:25.281Z,7.50
2023-04-18T23:45:55.452Z,9.00
2023-04-18T23:48:25.721Z,7.90
2023-04-18T23:50:55.928Z,7.10
2023-04-18T23:53:26.076Z,8.50
2023-04-18T23:55:56.275Z,7.80
2023-04-18T23:58:26.665Z,7.50
